createdAt,value
2019-02-08T00:01:04.645Z,100278.40
2019-02-08T00:03:32.535Z,100278.40
2019-02-08T00:06:00.810Z,100277.45
2019-02-08T00:08:28.807Z,100275.98
2019-02-08T00:10:56.667Z,100285.61
2019-02-08T00:13:24.601Z,100282.02
2019-02-08T00:15:52.727Z,100284.11
2019-02-08T00:18:20.723Z,100274.08
2019-02-08T00:20:48.827Z,100273.88
2019-02-08T00:23:26.150Z,100271.17
2019-02-08T00:25:46.725Z,100275.26
2019-02-08T00:28:14.677Z,100288.35
2019-02-08T00:30:43.014Z,100288.14
2019-02-08T00:33:11.064Z,100303.48
2019-02-08T00:35:38.961Z,100297.60
2019-02-08T00:38:07.007Z,100300.34
2019-02-08T00:40:34.899Z,100298.30
2019-02-08T00:43:03.125Z,100301.66
2019-02-08T00:45:30.986Z,100311.19
2019-02-08T00:47:58.743Z,100302.39
2019-02-08T00:50:26.894Z,100300.71
2019-02-08T00:52:55.153Z,100306.03
2019-02-08T00:55:23.517Z,100303.91
2019-02-08T00:57:51.932Z,100303.05
2019-02-08T01:00:21.318Z,100303.91
2019-02-08T01:02:49.633Z,100307.47
2019-02-08T01:05:18.271Z,100316.63
2019-02-08T01:07:46.300Z,100308.77
2019-02-08T01:10:23.508Z,100304.84
2019-02-08T01:12:52.232Z,100303.74
2019-02-08T01:15:21.632Z,100307.67
2019-02-08T01:17:49.581Z,100311.60
2019-02-08T01:20:18.547Z,100308.04
2019-02-08T01:22:46.512Z,100316.84
2019-02-08T01:25:17.051Z,100305.42
2019-02-08T01:27:44.986Z,100303.58
2019-02-08T01:30:15.428Z,100308.09
2019-02-08T01:32:43.437Z,100306.20
2019-02-08T01:35:14.161Z,100311.80
2019-02-08T01:37:42.877Z,100313.00
2019-02-08T01:40:13.858Z,100314.30
2019-02-08T01:42:41.697Z,100321.91
2019-02-08T01:45:10.392Z,100318.35
2019-02-08T01:48:14.191Z,100314.42
2019-02-08T01:50:42.291Z,100320.69
2019-02-08T01:53:11.262Z,100324.37
2019-02-08T01:55:39.496Z,100322.12
2019-02-08T01:58:07.475Z,100323.52
2019-02-08T02:00:37.618Z,100327.72
2019-02-08T02:03:06.910Z,100324.04
2019-02-08T02:05:34.973Z,100323.47
2019-02-08T02:08:04.074Z,100329.07
2019-02-08T02:10:37.026Z,100333.28
2019-02-08T02:13:05.537Z,100335.20
2019-02-08T02:15:33.637Z,100333.69
2019-02-08T02:18:01.603Z,100333.81
2019-02-08T02:20:31.732Z,100329.31
2019-02-08T02:22:59.731Z,100332.30
2019-02-08T02:25:27.773Z,100337.73
2019-02-08T02:27:55.705Z,100336.44
2019-02-08T02:30:26.102Z,100335.05
2019-02-08T02:32:53.966Z,100341.34
2019-02-08T02:35:22.623Z,100338.81
2019-02-08T02:37:51.268Z,100341.06
2019-02-08T02:40:20.156Z,100345.93
2019-02-08T02:42:48.512Z,100343.11
2019-02-08T02:45:19.603Z,100340.23
2019-02-08T02:47:47.551Z,100345.88
2019-02-08T02:50:15.763Z,100342.90
2019-02-08T02:52:43.656Z,100354.19
2019-02-08T02:55:33.469Z,100349.24
2019-02-08T02:58:01.362Z,100344.95
2019-02-08T03:00:38.256Z,100347.28
2019-02-08T03:03:06.560Z,100337.75
2019-02-08T03:05:34.652Z,100338.03
2019-02-08T03:08:03.331Z,100345.15
2019-02-08T03:10:31.317Z,100347.40
2019-02-08T03:12:59.353Z,100347.85
2019-02-08T03:15:27.343Z,100350.38
2019-02-08T03:17:55.226Z,100356.81
2019-02-08T03:20:23.513Z,100362.70
2019-02-08T03:22:51.799Z,100357.83
2019-02-08T03:25:23.589Z,100342.00
2019-02-08T03:27:52.346Z,100350.92
2019-02-08T03:30:25.659Z,100346.05
2019-02-08T03:32:55.475Z,100350.23
2019-02-08T03:35:24.636Z,100358.00
2019-02-08T03:37:52.629Z,100363.32
2019-02-08T03:40:24.879Z,100366.88
2019-02-08T03:42:53.109Z,100366.26
2019-02-08T03:45:21.281Z,100370.27
2019-02-08T03:47:49.748Z,100368.59
2019-02-08T03:50:19.062Z,100377.10
2019-02-08T03:52:47.149Z,100381.03
2019-02-08T03:55:16.688Z,100383.45
2019-02-08T03:57:44.649Z,100378.20
2019-02-08T04:00:28.272Z,100384.75
2019-02-08T04:02:56.245Z,100393.63
2019-02-08T04:05:24.729Z,100391.22
2019-02-08T04:07:52.628Z,100401.98
2019-02-08T04:10:21.922Z,100401.77
2019-02-08T04:12:49.913Z,100396.41
2019-02-08T04:15:18.239Z,100398.28
2019-02-08T04:17:47.015Z,100404.83
2019-02-08T04:20:16.596Z,100405.48
2019-02-08T04:22:44.757Z,100405.02
2019-02-08T04:25:13.848Z,100405.02
2019-02-08T04:27:42.633Z,100410.63
2019-02-08T04:30:17.506Z,100413.08
2019-02-08T04:32:46.084Z,100408.41
2019-02-08T04:35:14.030Z,100409.15
2019-02-08T04:37:41.920Z,100412.14
2019-02-08T04:40:11.139Z,100427.84
2019-02-08T04:42:39.083Z,100421.50
2019-02-08T04:45:07.826Z,100415.97
2019-02-08T04:47:35.683Z,100423.75
2019-02-08T04:50:05.027Z,100425.99
2019-02-08T04:52:33.297Z,100432.16
2019-02-08T04:55:01.129Z,100433.55
2019-02-08T04:57:29.110Z,100428.63
2019-02-08T04:59:56.892Z,100439.10
2019-02-08T05:02:24.903Z,100437.05
2019-02-08T05:04:52.749Z,100440.41
2019-02-08T05:07:20.889Z,100444.34
2019-02-08T05:09:48.855Z,100446.09
2019-02-08T05:12:16.701Z,100448.63
2019-02-08T05:14:44.703Z,100445.53
2019-02-08T05:17:12.582Z,100446.95
2019-02-08T05:19:40.405Z,100453.87
2019-02-08T05:22:08.448Z,100449.84
2019-02-08T05:24:36.410Z,100455.95
2019-02-08T05:27:04.393Z,100453.52
2019-02-08T05:29:33.005Z,100464.74
2019-02-08T05:32:01.106Z,100459.59
2019-02-08T05:34:28.962Z,100460.45
2019-02-08T05:36:57.486Z,100465.30
2019-02-08T05:39:26.143Z,100460.52
2019-02-08T05:41:54.072Z,100463.70
2019-02-08T05:44:21.950Z,100464.19
2019-02-08T05:46:49.907Z,100463.25
2019-02-08T05:49:17.796Z,100463.63
2019-02-08T05:51:46.289Z,100468.48
2019-02-08T05:54:14.241Z,100473.34
2019-02-08T05:56:42.591Z,100473.34
2019-02-08T05:59:10.465Z,100472.31
2019-02-08T06:01:38.490Z,100472.02
2019-02-08T06:04:06.574Z,100466.41
2019-02-08T06:06:34.582Z,100478.19
2019-02-08T06:09:13.514Z,100483.80
2019-02-08T06:11:41.550Z,100482.13
2019-02-08T06:14:09.614Z,100483.80
2019-02-08T06:16:37.576Z,100485.67
2019-02-08T06:19:05.875Z,100483.23
2019-02-08T06:21:33.805Z,100488.21
2019-02-08T06:24:01.670Z,100493.70
2019-02-08T06:26:29.687Z,100501.73
2019-02-08T06:28:57.727Z,100509.59
2019-02-08T06:31:25.965Z,100518.30
2019-02-08T06:33:53.949Z,100520.23
2019-02-08T06:36:21.948Z,100521.17
2019-02-08T06:38:49.841Z,100528.46
2019-02-08T06:41:18.007Z,100541.35
2019-02-08T06:43:46.247Z,100538.36
2019-02-08T06:46:14.123Z,100542.77
2019-02-08T06:48:42.168Z,100543.78
2019-02-08T06:51:10.030Z,100543.70
2019-02-08T06:53:38.101Z,100537.98
2019-02-08T06:56:09.366Z,100541.17
2019-02-08T06:58:45.645Z,100543.52
2019-02-08T07:01:36.030Z,100555.36
2019-02-08T07:04:22.539Z,100552.37
2019-02-08T07:07:22.291Z,100554.62
2019-02-08T07:10:12.626Z,100562.09
2019-02-08T07:13:17.934Z,100564.71
2019-02-08T07:16:05.443Z,100564.89
2019-02-08T07:18:41.860Z,100560.04
2019-02-08T07:21:32.378Z,100563.22
2019-02-08T07:24:18.501Z,100560.14
2019-02-08T07:27:11.963Z,100562.84
2019-02-08T07:30:02.546Z,100564.52
2019-02-08T07:32:48.511Z,100561.91
2019-02-08T07:35:48.611Z,100567.73
2019-02-08T07:38:42.498Z,100564.07
2019-02-08T07:41:29.829Z,100570.91
2019-02-08T07:44:22.876Z,100572.47
2019-02-08T07:47:14.661Z,100575.84
2019-02-08T07:49:51.642Z,100576.39
2019-02-08T07:52:42.222Z,100573.58
2019-02-08T07:55:54.525Z,100581.16
2019-02-08T07:58:47.944Z,100583.77
2019-02-08T08:01:48.437Z,100584.02
2019-02-08T08:04:34.935Z,100584.12
2019-02-08T08:07:09.812Z,100585.67
2019-02-08T08:10:03.164Z,100592.20
2019-02-08T08:12:54.785Z,100596.37
2019-02-08T08:15:40.949Z,100596.75
2019-02-08T08:18:25.360Z,100593.26
2019-02-08T08:21:12.774Z,100591.75
2019-02-08T08:24:13.829Z,100602.45
2019-02-08T08:27:14.688Z,100600.74
2019-02-08T08:30:01.480Z,100602.02
2019-02-08T08:32:43.243Z,100600.02
2019-02-08T08:35:39.942Z,100603.22
2019-02-08T08:39:04.319Z,100602.65
2019-02-08T08:42:12.811Z,100600.97
2019-02-08T08:45:16.928Z,100596.00
2019-02-08T08:48:34.955Z,100592.15
2019-02-08T08:51:31.357Z,100594.42
2019-02-08T08:54:43.886Z,100591.62
2019-02-08T08:58:02.060Z,100595.27
2019-02-08T09:01:14.362Z,100601.66
2019-02-08T09:04:25.695Z,100598.88
2019-02-08T09:07:25.061Z,100594.09
2019-02-08T09:10:49.413Z,100594.61
2019-02-08T09:13:42.778Z,100605.61
2019-02-08T09:16:52.746Z,100596.07
2019-02-08T09:20:02.941Z,100601.59
2019-02-08T09:23:10.704Z,100597.00
2019-02-08T09:26:13.781Z,100603.20
2019-02-08T09:29:05.635Z,100594.06
2019-02-08T09:32:10.685Z,100602.26
2019-02-08T09:35:34.156Z,100605.77
2019-02-08T09:38:40.704Z,100610.14
2019-02-08T09:41:45.737Z,100604.28
2019-02-08T09:44:58.713Z,100600.78
2019-02-08T09:48:08.806Z,100604.02
2019-02-08T09:51:13.573Z,100607.52
2019-02-08T09:54:27.716Z,100609.92
2019-02-08T09:57:27.707Z,100616.69
2019-02-08T10:00:42.880Z,100602.23
2019-02-08T10:03:59.851Z,100604.78
2019-02-08T10:07:05.016Z,100603.47
2019-02-08T10:10:19.693Z,100604.35
2019-02-08T10:13:40.664Z,100607.28
2019-02-08T10:16:37.662Z,100598.81
2019-02-08T10:19:55.314Z,100607.93
2019-02-08T10:23:18.528Z,100603.77
2019-02-08T10:26:35.948Z,100595.42
2019-02-08T10:29:40.713Z,100606.00
2019-02-08T10:32:42.891Z,100610.38
2019-02-08T10:35:54.662Z,100607.66
2019-02-08T10:39:18.923Z,100616.81
2019-02-08T10:42:30.504Z,100621.02
2019-02-08T10:45:34.635Z,100608.81
2019-02-08T10:48:55.316Z,100613.87
2019-02-08T10:52:00.413Z,100610.16
2019-02-08T10:55:22.889Z,100608.03
2019-02-08T10:58:30.973Z,100604.08
2019-02-08T11:01:32.917Z,100603.13
2019-02-08T11:04:30.851Z,100601.61
2019-02-08T11:07:48.331Z,100600.89
2019-02-08T11:11:08.208Z,100591.55
2019-02-08T11:14:16.121Z,100593.92
2019-02-08T11:17:22.712Z,100590.31
2019-02-08T11:20:05.115Z,100593.07
2019-02-08T11:22:33.203Z,100580.47
2019-02-08T11:25:01.233Z,100581.52
2019-02-08T11:27:29.239Z,100586.89
2019-02-08T11:29:57.357Z,100591.77
2019-02-08T11:32:28.669Z,100592.23
2019-02-08T11:34:55.263Z,100587.30
2019-02-08T11:37:23.154Z,100587.16
2019-02-08T11:39:51.327Z,100590.96
2019-02-08T11:42:19.995Z,100590.77
2019-02-08T11:44:48.039Z,100583.44
2019-02-08T11:47:16.103Z,100585.22
2019-02-08T11:49:44.002Z,100582.06
2019-02-08T11:52:11.970Z,100580.08
2019-02-08T11:54:40.358Z,100579.16
2019-02-08T11:57:08.316Z,100580.22
2019-02-08T11:59:36.368Z,100580.50
2019-02-08T12:02:05.221Z,100570.80
2019-02-08T12:04:33.668Z,100569.84
2019-02-08T12:07:01.653Z,100563.60
2019-02-08T12:09:30.344Z,100563.34
2019-02-08T12:11:58.255Z,100571.09
2019-02-08T12:14:26.106Z,100569.06
2019-02-08T12:16:54.042Z,100562.20
2019-02-08T12:19:22.013Z,100553.89
2019-02-08T12:21:53.202Z,100555.91
2019-02-08T12:24:21.239Z,100549.22
2019-02-08T12:26:49.014Z,100544.84
2019-02-08T12:29:17.022Z,100542.81
2019-02-08T12:31:44.879Z,100531.94
2019-02-08T12:34:12.854Z,100539.28
2019-02-08T12:36:40.826Z,100537.16
2019-02-08T12:39:10.349Z,100536.72
2019-02-08T12:41:38.604Z,100541.39
2019-02-08T12:44:06.998Z,100529.85
2019-02-08T12:46:35.652Z,100529.66
2019-02-08T12:49:03.865Z,100525.97
2019-02-08T12:51:31.751Z,100528.73
2019-02-08T12:53:59.798Z,100520.30
2019-02-08T12:56:27.828Z,100520.84
2019-02-08T12:58:56.552Z,100512.25
2019-02-08T13:01:24.590Z,100517.81
2019-02-08T13:03:52.687Z,100512.05
2019-02-08T13:06:20.682Z,100509.43
2019-02-08T13:08:48.462Z,100506.23
2019-02-08T13:11:16.491Z,100511.25
2019-02-08T13:13:44.377Z,100507.07
2019-02-08T13:16:12.409Z,100501.70
2019-02-08T13:18:40.270Z,100501.20
2019-02-08T13:21:08.233Z,100495.35
2019-02-08T13:23:36.181Z,100486.32
2019-02-08T13:26:04.311Z,100497.46
2019-02-08T13:28:32.748Z,100499.60
2019-02-08T13:31:00.530Z,100500.39
2019-02-08T13:33:28.443Z,100496.14
2019-02-08T13:35:56.205Z,100500.11
2019-02-08T13:38:24.310Z,100504.56
2019-02-08T13:40:52.379Z,100499.05
2019-02-08T13:43:20.414Z,100501.48
2019-02-08T13:45:48.464Z,100497.94
2019-02-08T13:48:16.219Z,100498.89
2019-02-08T13:50:44.261Z,100496.88
2019-02-08T13:53:13.024Z,100497.51
2019-02-08T13:55:50.054Z,100502.17
2019-02-08T13:58:18.014Z,100495.33
2019-02-08T14:00:46.024Z,100492.58
2019-02-08T14:03:13.880Z,100495.23
2019-02-08T14:05:41.777Z,100492.88
2019-02-08T14:08:09.837Z,100486.65
2019-02-08T14:10:37.831Z,100488.60
2019-02-08T14:13:05.982Z,100483.31
2019-02-08T14:15:34.244Z,100481.88
2019-02-08T14:18:02.419Z,100485.21
2019-02-08T14:20:30.437Z,100487.63
2019-02-08T14:22:58.387Z,100494.72
2019-02-08T14:25:26.695Z,100490.78
2019-02-08T14:27:54.773Z,100491.77
2019-02-08T14:30:33.927Z,100507.88
2019-02-08T14:33:01.931Z,100484.05
2019-02-08T14:35:30.124Z,100484.89
2019-02-08T14:37:59.286Z,100478.28
2019-02-08T14:40:27.360Z,100479.47
2019-02-08T14:42:55.493Z,100475.39
2019-02-08T14:45:24.085Z,100467.42
2019-02-08T14:47:52.144Z,100473.07
2019-02-08T14:50:21.851Z,100474.05
2019-02-08T14:52:49.965Z,100473.64
2019-02-08T14:55:18.089Z,100466.47
2019-02-08T14:57:46.811Z,100467.91
2019-02-08T15:00:17.482Z,100483.67
2019-02-08T15:02:45.515Z,100467.22
2019-02-08T15:05:14.382Z,100473.73
2019-02-08T15:07:42.435Z,100473.19
2019-02-08T15:10:16.279Z,100464.33
2019-02-08T15:12:44.321Z,100469.52
2019-02-08T15:15:12.314Z,100461.23
2019-02-08T15:17:40.510Z,100469.36
2019-02-08T15:20:15.488Z,100458.03
2019-02-08T15:22:43.582Z,100455.61
2019-02-08T15:25:12.134Z,100451.34
2019-02-08T15:27:40.012Z,100458.63
2019-02-08T15:30:10.565Z,100452.38
2019-02-08T15:32:38.444Z,100458.98
2019-02-08T15:35:07.051Z,100449.55
2019-02-08T15:37:34.921Z,100453.67
2019-02-08T15:40:04.420Z,100462.17
2019-02-08T15:42:32.213Z,100462.33
2019-02-08T15:45:00.283Z,100463.05
2019-02-08T15:47:28.585Z,100467.11
2019-02-08T15:49:56.515Z,100468.17
2019-02-08T15:52:24.570Z,100474.66
2019-02-08T15:54:52.467Z,100478.27
2019-02-08T15:57:20.511Z,100478.77
2019-02-08T15:59:49.137Z,100468.86
2019-02-08T16:02:17.192Z,100468.28
2019-02-08T16:04:46.037Z,100464.58
2019-02-08T16:07:13.969Z,100467.21
2019-02-08T16:09:42.063Z,100469.97
2019-02-08T16:12:10.539Z,100467.97
2019-02-08T16:14:38.342Z,100473.34
2019-02-08T16:17:06.578Z,100470.36
2019-02-08T16:19:39.249Z,100472.88
2019-02-08T16:22:07.931Z,100467.37
2019-02-08T16:24:35.844Z,100470.83
2019-02-08T16:27:04.624Z,100463.07
2019-02-08T16:29:32.594Z,100460.33
2019-02-08T16:32:00.472Z,100465.10
2019-02-08T16:34:28.647Z,100461.77
2019-02-08T16:37:03.397Z,100465.00
2019-02-08T16:39:26.362Z,100465.48
2019-02-08T16:41:54.364Z,100465.22
2019-02-08T16:44:22.641Z,100458.52
2019-02-08T16:46:50.618Z,100460.31
2019-02-08T16:49:18.573Z,100448.72
2019-02-08T16:51:46.442Z,100444.99
2019-02-08T16:54:14.438Z,100443.94
2019-02-08T16:56:42.460Z,100444.75
2019-02-08T16:59:10.419Z,100444.97
2019-02-08T17:01:38.464Z,100445.79
2019-02-08T17:04:06.364Z,100436.95
2019-02-08T17:06:34.383Z,100436.44
2019-02-08T17:09:02.462Z,100436.55
2019-02-08T17:11:30.315Z,100430.44
2019-02-08T17:13:58.093Z,100434.71
2019-02-08T17:16:26.009Z,100429.19
2019-02-08T17:18:53.827Z,100424.66
2019-02-08T17:21:21.697Z,100424.52
2019-02-08T17:23:49.558Z,100422.22
2019-02-08T17:26:17.698Z,100422.77
2019-02-08T17:28:45.690Z,100420.36
2019-02-08T17:31:13.505Z,100421.41
2019-02-08T17:33:41.319Z,100413.63
2019-02-08T17:36:09.360Z,100413.25
2019-02-08T17:38:37.156Z,100409.04
2019-02-08T17:41:05.670Z,100409.19
2019-02-08T17:43:33.529Z,100410.27
2019-02-08T17:46:01.931Z,100413.11
2019-02-08T17:48:29.963Z,100411.44
2019-02-08T17:50:57.722Z,100403.92
2019-02-08T17:53:25.555Z,100405.33
2019-02-08T17:55:53.549Z,100408.91
2019-02-08T17:58:21.576Z,100406.22
2019-02-08T18:00:51.580Z,100407.09
2019-02-08T18:03:19.827Z,100409.05
2019-02-08T18:05:47.943Z,100401.98
2019-02-08T18:08:15.749Z,100396.95
2019-02-08T18:10:43.778Z,100397.67
2019-02-08T18:13:11.828Z,100398.20
2019-02-08T18:15:40.746Z,100394.47
2019-02-08T18:18:11.116Z,100393.10
2019-02-08T18:20:42.326Z,100389.97
2019-02-08T18:23:10.324Z,100386.52
2019-02-08T18:25:38.213Z,100384.06
2019-02-08T18:28:11.001Z,100376.56
2019-02-08T18:30:36.398Z,100380.77
2019-02-08T18:33:04.464Z,100378.38
2019-02-08T18:35:32.452Z,100380.98
2019-02-08T18:38:00.416Z,100371.88
2019-02-08T18:40:28.454Z,100370.38
2019-02-08T18:42:56.541Z,100366.84
2019-02-08T18:45:26.066Z,100370.38
2019-02-08T18:47:54.030Z,100365.97
2019-02-08T18:50:24.894Z,100366.11
2019-02-08T18:52:52.998Z,100368.91
2019-02-08T18:55:21.099Z,100364.36
2019-02-08T18:57:49.635Z,100363.66
2019-02-08T19:00:23.162Z,100362.03
2019-02-08T19:02:51.100Z,100364.75
2019-02-08T19:05:19.096Z,100367.50
2019-02-08T19:07:57.906Z,100366.84
2019-02-08T19:10:25.992Z,100362.47
2019-02-08T19:12:53.956Z,100354.45
2019-02-08T19:15:22.256Z,100354.27
2019-02-08T19:17:51.054Z,100348.30
2019-02-08T19:20:20.724Z,100353.23
2019-02-08T19:22:48.976Z,100349.98
2019-02-08T19:25:19.584Z,100344.27
2019-02-08T19:27:47.483Z,100335.53
2019-02-08T19:30:19.482Z,100334.58
2019-02-08T19:32:47.613Z,100336.62
2019-02-08T19:35:15.762Z,100340.72
2019-02-08T19:37:53.521Z,100322.43
2019-02-08T19:40:24.299Z,100331.79
2019-02-08T19:42:52.205Z,100324.16
2019-02-08T19:45:20.728Z,100327.41
2019-02-08T19:47:48.711Z,100324.34
2019-02-08T19:50:25.269Z,100324.20
2019-02-08T19:52:53.475Z,100323.43
2019-02-08T19:55:21.455Z,100315.75
2019-02-08T19:57:49.507Z,100311.67
2019-02-08T20:00:21.543Z,100308.83
2019-02-08T20:02:49.667Z,100309.55
2019-02-08T20:05:19.610Z,100302.93
2019-02-08T20:07:47.702Z,100304.22
2019-02-08T20:10:27.681Z,100301.37
2019-02-08T20:12:55.747Z,100304.51
2019-02-08T20:15:23.730Z,100304.73
2019-02-08T20:17:51.719Z,100296.55
2019-02-08T20:20:19.743Z,100294.81
2019-02-08T20:22:48.020Z,100303.34
2019-02-08T20:25:21.618Z,100304.73
2019-02-08T20:27:50.101Z,100307.02
2019-02-08T20:30:19.904Z,100305.23
2019-02-08T20:32:48.202Z,100304.13
2019-02-08T20:35:17.853Z,100293.00
2019-02-08T20:37:46.195Z,100295.55
2019-02-08T20:40:19.614Z,100293.63
2019-02-08T20:42:47.938Z,100295.32
2019-02-08T20:45:19.108Z,100295.91
2019-02-08T20:47:47.182Z,100293.58
2019-02-08T20:50:16.454Z,100295.69
2019-02-08T20:52:45.337Z,100294.94
2019-02-08T20:55:15.029Z,100295.83
2019-02-08T20:57:43.082Z,100293.50
2019-02-08T21:00:35.838Z,100277.91
2019-02-08T21:03:07.227Z,100281.83
2019-02-08T21:05:35.340Z,100279.66
2019-02-08T21:08:04.106Z,100269.09
2019-02-08T21:10:32.068Z,100266.53
2019-02-08T21:13:00.116Z,100261.30
2019-02-08T21:15:28.173Z,100264.61
2019-02-08T21:17:56.313Z,100265.86
2019-02-08T21:20:24.426Z,100254.95
2019-02-08T21:22:52.425Z,100249.95
2019-02-08T21:25:25.210Z,100250.53
2019-02-08T21:27:53.272Z,100251.63
2019-02-08T21:30:21.426Z,100244.28
2019-02-08T21:32:49.462Z,100239.22
2019-02-08T21:35:18.320Z,100230.95
2019-02-08T21:37:47.996Z,100223.45
2019-02-08T21:40:18.349Z,100226.06
2019-02-08T21:42:46.303Z,100223.75
2019-02-08T21:45:18.447Z,100218.80
2019-02-08T21:47:46.415Z,100217.55
2019-02-08T21:50:16.951Z,100218.20
2019-02-08T21:52:45.509Z,100212.52
2019-02-08T21:55:14.098Z,100201.89
2019-02-08T21:57:41.989Z,100200.37
2019-02-08T22:00:22.776Z,100194.55
2019-02-08T22:02:51.221Z,100194.34
2019-02-08T22:05:21.856Z,100203.35
2019-02-08T22:07:50.044Z,100190.99
2019-02-08T22:10:18.125Z,100196.59
2019-02-08T22:12:46.164Z,100192.23
2019-02-08T22:15:19.732Z,100188.95
2019-02-08T22:17:47.835Z,100182.20
2019-02-08T22:20:16.804Z,100189.69
2019-02-08T22:22:45.236Z,100177.33
2019-02-08T22:25:15.213Z,100180.67
2019-02-08T22:27:43.272Z,100174.22
2019-02-08T22:30:16.848Z,100173.55
2019-02-08T22:32:45.065Z,100177.27
2019-02-08T22:35:13.424Z,100162.70
2019-02-08T22:37:41.354Z,100160.55
2019-02-08T22:40:11.793Z,100154.58
2019-02-08T22:42:39.766Z,100156.25
2019-02-08T22:45:13.192Z,100149.86
2019-02-08T22:47:41.172Z,100156.73
2019-02-08T22:50:10.344Z,100144.68
2019-02-08T22:52:38.372Z,100141.33
2019-02-08T22:55:08.330Z,100141.97
2019-02-08T22:57:36.223Z,100129.19
2019-02-08T23:00:25.880Z,100127.21
2019-02-08T23:02:53.858Z,100123.64
2019-02-08T23:05:21.842Z,100115.00
2019-02-08T23:07:49.856Z,100121.78
2019-02-08T23:10:17.846Z,100115.29
2019-02-08T23:12:45.854Z,100111.02
2019-02-08T23:15:14.626Z,100111.22
2019-02-08T23:17:42.663Z,100106.34
2019-02-08T23:20:11.365Z,100116.23
2019-02-08T23:22:39.465Z,100113.08
2019-02-08T23:25:07.659Z,100115.94
2019-02-08T23:27:36.118Z,100117.47
2019-02-08T23:30:05.920Z,100110.83
2019-02-08T23:32:33.777Z,100116.59
2019-02-08T23:35:01.622Z,100108.37
2019-02-08T23:37:29.492Z,100104.95
2019-02-08T23:39:57.543Z,100095.50
2019-02-08T23:42:25.561Z,100096.81
2019-02-08T23:44:53.427Z,100095.95
2019-02-08T23:47:21.269Z,100088.28
2019-02-08T23:49:49.029Z,100083.05
2019-02-08T23:52:17.056Z,100081.28
2019-02-08T23:54:44.831Z,100080.84
2019-02-08T23:57:12.736Z,100082.14
2019-02-08T23:59:40.676Z,100081.16
